Time;durP1;ratioP1;P1;durP2;ratioP2;P2;SDS_P1;SDS_P2;PMS_P1;PMS_P2;Temp;Humidity;BMP_temperature;BMP_pressure;BME280_temperature;BME280_humidity;BME280_pressure;Samples;Min_cycle;Max_cycle;Signal;HPM_P1;HPM_P2
2021/06/12 00:04:49;;;;;;;6.23;5.03;;;;;;;14.48;100.00;94708.94;10489061;28;20106;-80
2021/06/12 00:09:50;;;;;;;8.23;5.47;;;;;;;14.33;100.00;94696.47;10487791;28;20365;-80
2021/06/12 00:14:50;;;;;;;13.30;5.55;;;;;;;14.37;100.00;94708.31;10486421;28;20040;-80
2021/06/12 00:19:52;;;;;;;7.13;4.78;;;;;;;14.36;100.00;94702.09;10487625;28;20028;-80
2021/06/12 00:24:52;;;;;;;7.78;4.70;;;;;;;14.35;100.00;94688.88;10486024;28;20128;-80
2021/06/12 00:29:52;;;;;;;6.63;5.40;;;;;;;14.19;100.00;94691.03;10486739;28;20107;-80
2021/06/12 00:34:53;;;;;;;10.73;5.13;;;;;;;14.23;100.00;94697.47;10486933;28;20051;-80
2021/06/12 00:39:53;;;;;;;7.97;5.60;;;;;;;14.33;100.00;94697.28;10487869;28;20281;-80
2021/06/12 00:44:54;;;;;;;7.60;5.35;;;;;;;14.22;100.00;94695.88;10486204;28;20025;-80
2021/06/12 00:49:54;;;;;;;8.27;5.93;;;;;;;14.09;100.00;94688.53;10486546;28;20399;-80
2021/06/12 00:54:54;;;;;;;7.77;5.43;;;;;;;14.04;100.00;94684.00;10486840;28;20029;-80
2021/06/12 00:59:55;;;;;;;12.73;5.90;;;;;;;14.15;100.00;94690.84;10485294;28;20031;-80
2021/06/12 01:04:56;;;;;;;6.95;5.13;;;;;;;14.14;100.00;94691.94;10485274;28;20690;-80
2021/06/12 01:09:57;;;;;;;8.13;5.75;;;;;;;14.12;100.00;94693.31;10484858;28;20044;-80
2021/06/12 01:15:04;;;;;;;6.67;5.07;;;;;;;14.16;100.00;94692.47;10481707;28;20035;-80
2021/06/12 01:20:31;;;;;;;10.73;5.15;;;;;;;14.18;100.00;94701.06;10493882;28;20457;-80
2021/06/12 01:26:06;;;;;;;8.25;4.82;;;;;;;14.18;100.00;94703.75;10491516;28;20051;-77
2021/06/12 01:31:09;;;;;;;6.68;5.00;;;;;;;14.09;100.00;94710.94;10478845;28;20044;-76
2021/06/12 01:36:12;;;;;;;6.63;4.55;;;;;;;14.05;100.00;94701.84;10489215;28;20039;-76
2021/06/12 01:41:16;;;;;;;9.98;5.75;;;;;;;13.96;100.00;94706.31;10489421;28;20028;-77
2021/06/12 01:46:17;;;;;;;7.85;5.38;;;;;;;14.00;100.00;94710.03;10489680;28;20020;-77
2021/06/12 01:51:19;;;;;;;8.48;4.65;;;;;;;13.97;100.00;94710.63;10490819;28;20112;-77
2021/06/12 01:56:22;;;;;;;8.98;5.68;;;;;;;13.92;100.00;94714.19;10490823;28;20376;-77
2021/06/12 02:01:25;;;;;;;9.68;5.55;;;;;;;13.98;100.00;94720.31;10490854;28;20052;-77
2021/06/12 02:06:26;;;;;;;7.95;5.10;;;;;;;13.96;100.00;94715.19;10491048;28;20100;-77
2021/06/12 02:11:27;;;;;;;9.43;5.05;;;;;;;13.97;100.00;94714.13;10490934;28;20028;-77
2021/06/12 02:16:28;;;;;;;9.05;5.10;;;;;;;13.92;100.00;94713.41;10490733;28;20020;-77
2021/06/12 02:21:31;;;;;;;10.10;6.30;;;;;;;13.90;100.00;94718.28;10489730;28;20021;-77
2021/06/12 02:26:38;;;;;;;8.75;5.70;;;;;;;13.87;100.00;94726.97;10488676;28;20028;-77
2021/06/12 02:31:50;;;;;;;7.07;5.68;;;;;;;13.79;100.00;94723.84;10488570;28;20044;-77
2021/06/12 02:36:50;;;;;;;7.63;5.82;;;;;;;13.78;100.00;94718.75;10489884;28;20086;-77
2021/06/12 02:41:51;;;;;;;9.03;6.00;;;;;;;13.49;100.00;94715.13;10490321;28;20908;-77
2021/06/12 02:46:57;;;;;;;7.93;6.13;;;;;;;13.39;100.00;94720.63;10489395;28;20474;-77
2021/06/12 02:52:00;;;;;;;9.80;6.18;;;;;;;13.46;100.00;94725.69;10489304;28;20027;-76
2021/06/12 02:57:01;;;;;;;10.93;7.20;;;;;;;13.57;100.00;94729.03;10489824;28;20029;-76
2021/06/12 03:02:03;;;;;;;12.23;6.65;;;;;;;13.65;100.00;94728.38;10489723;28;20977;-76
2021/06/12 03:07:05;;;;;;;8.95;6.80;;;;;;;13.67;100.00;94728.88;10488330;28;20953;-76
2021/06/12 03:12:07;;;;;;;10.88;6.97;;;;;;;13.78;100.00;94724.13;10489183;28;20036;-77
2021/06/12 03:17:08;;;;;;;9.13;6.72;;;;;;;13.84;100.00;94723.78;10488989;28;20028;-77
2021/06/12 03:22:09;;;;;;;8.63;6.60;;;;;;;13.90;100.00;94737.19;10488890;28;20392;-77
2021/06/12 03:27:10;;;;;;;10.52;7.32;;;;;;;13.90;100.00;94737.19;10488134;28;20028;-77
2021/06/12 03:32:11;;;;;;;14.10;7.53;;;;;;;13.82;100.00;94742.16;10486869;28;20646;-76
2021/06/12 03:37:12;;;;;;;14.57;6.90;;;;;;;13.81;100.00;94735.19;10484569;28;20028;-76
2021/06/12 03:42:14;;;;;;;9.30;6.40;;;;;;;13.85;100.00;94738.06;10486431;28;20697;-76
2021/06/12 03:47:15;;;;;;;12.73;9.05;;;;;;;14.09;100.00;94740.66;10484142;28;20032;-77
2021/06/12 03:52:19;;;;;;;12.48;7.43;;;;;;;14.27;100.00;94743.63;10485807;28;20037;-77
2021/06/12 03:57:20;;;;;;;15.23;6.95;;;;;;;14.36;100.00;94755.38;10485348;28;20877;-77
2021/06/12 04:02:20;;;;;;;11.63;5.40;;;;;;;14.48;100.00;94742.19;10484653;28;20040;-77
2021/06/12 04:07:21;;;;;;;12.32;5.65;;;;;;;14.47;100.00;94750.59;10484192;28;20025;-77
2021/06/12 04:12:21;;;;;;;9.50;5.63;;;;;;;14.53;100.00;94750.19;10484643;28;20151;-77
2021/06/12 04:17:21;;;;;;;9.63;5.80;;;;;;;14.63;100.00;94746.53;10481966;28;20035;-77
2021/06/12 04:22:22;;;;;;;8.37;5.40;;;;;;;14.84;100.00;94759.69;10484445;28;20033;-77
2021/06/12 04:27:22;;;;;;;7.05;5.18;;;;;;;15.01;100.00;94762.63;10483645;28;20379;-77
2021/06/12 04:32:23;;;;;;;12.52;5.80;;;;;;;15.08;100.00;94758.72;10482175;28;20560;-77
2021/06/12 04:37:23;;;;;;;9.00;4.75;;;;;;;15.12;100.00;94754.28;10484665;28;20028;-77
2021/06/12 04:42:24;;;;;;;8.00;4.63;;;;;;;15.29;100.00;94759.88;10484943;28;20032;-77
2021/06/12 04:47:24;;;;;;;9.50;4.63;;;;;;;15.14;100.00;94768.31;10483832;28;20789;-77
2021/06/12 04:52:25;;;;;;;6.73;5.10;;;;;;;15.20;100.00;94764.41;10483690;28;20368;-77
2021/06/12 04:57:25;;;;;;;10.15;5.07;;;;;;;15.29;100.00;94770.72;10492004;28;20024;-77
2021/06/12 05:02:25;;;;;;;14.43;5.07;;;;;;;15.38;100.00;94777.03;10492663;28;20028;-77
2021/06/12 05:07:26;;;;;;;11.03;5.30;;;;;;;15.71;100.00;94776.91;10490514;28;20302;-77
2021/06/12 05:12:26;;;;;;;8.85;5.25;;;;;;;15.87;100.00;94780.09;10492029;28;20277;-77
2021/06/12 05:17:28;;;;;;;7.57;4.63;;;;;;;16.06;100.00;94779.94;10492371;28;20033;-77
2021/06/12 05:22:28;;;;;;;11.68;6.30;;;;;;;16.27;100.00;94786.78;10490168;28;20274;-77
2021/06/12 05:27:29;;;;;;;13.97;7.10;;;;;;;16.52;100.00;94793.50;10491345;28;20460;-77
2021/06/12 05:32:29;;;;;;;9.85;6.38;;;;;;;16.62;100.00;94795.16;10490967;28;20492;-76
2021/06/12 05:37:30;;;;;;;12.17;6.20;;;;;;;16.88;100.00;94798.88;10487899;28;20427;-77
2021/06/12 05:42:30;;;;;;;12.00;6.90;;;;;;;17.02;100.00;94795.25;10488870;28;20609;-77
2021/06/12 05:47:31;;;;;;;11.05;6.75;;;;;;;17.39;100.00;94796.66;10489541;28;20291;-77
2021/06/12 05:52:31;;;;;;;12.68;6.93;;;;;;;17.81;100.00;94796.28;10490903;28;20419;-78
2021/06/12 05:57:32;;;;;;;14.73;6.67;;;;;;;17.61;100.00;94789.56;10489754;28;20094;-78
2021/06/12 06:02:33;;;;;;;13.30;6.20;;;;;;;18.22;100.00;94794.25;10490603;28;20784;-78
2021/06/12 06:07:33;;;;;;;9.13;6.22;;;;;;;18.99;100.00;94793.69;10491789;28;20032;-77
2021/06/12 06:12:34;;;;;;;11.50;5.87;;;;;;;20.00;100.00;94789.56;10490047;28;20448;-77
2021/06/12 06:17:35;;;;;;;8.10;5.20;;;;;;;21.18;100.00;94784.75;10489978;28;20099;-78
2021/06/12 06:22:35;;;;;;;12.90;5.40;;;;;;;21.84;100.00;94782.97;10512332;28;20039;-77
2021/06/12 06:27:36;;;;;;;8.18;5.05;;;;;;;21.69;93.51;94773.53;10529775;28;20109;-77
2021/06/12 06:32:36;;;;;;;9.15;4.60;;;;;;;21.38;93.16;94774.88;10529421;28;20060;-77
2021/06/12 06:37:37;;;;;;;8.45;5.07;;;;;;;22.99;90.29;94769.78;10509970;28;20035;-76
2021/06/12 06:42:37;;;;;;;5.10;3.60;;;;;;;24.68;70.31;94761.13;10507720;28;20031;-76
2021/06/12 06:47:38;;;;;;;5.10;4.30;;;;;;;25.56;62.62;94765.03;10530009;28;20581;-77
2021/06/12 06:52:38;;;;;;;5.57;3.85;;;;;;;24.76;65.65;94759.31;10526393;28;20276;-77
2021/06/12 06:57:39;;;;;;;7.50;3.60;;;;;;;26.82;55.81;94757.72;10488357;28;20090;-77
2021/06/12 07:02:39;;;;;;;9.87;3.40;;;;;;;27.92;48.85;94761.84;10488095;28;20115;-77
2021/06/12 07:07:39;;;;;;;4.63;3.57;;;;;;;28.65;46.76;94752.81;10488509;28;20070;-76
2021/06/12 07:12:40;;;;;;;6.10;3.30;;;;;;;29.72;44.44;94745.84;10486992;28;20032;-76
2021/06/12 07:17:40;;;;;;;6.35;3.42;;;;;;;30.36;42.23;94741.38;10487731;28;20033;-77
2021/06/12 07:22:41;;;;;;;6.40;2.87;;;;;;;30.62;41.50;94734.59;10509553;28;20234;-78
2021/06/12 07:27:41;;;;;;;4.60;3.20;;;;;;;31.27;40.10;94736.22;10521980;28;20032;-78
2021/06/12 07:32:42;;;;;;;4.60;3.47;;;;;;;31.63;38.73;94738.75;10527591;28;20717;-77
2021/06/12 07:37:43;;;;;;;5.82;2.90;;;;;;;29.51;41.83;94729.25;10527493;28;20035;-77
2021/06/12 07:42:43;;;;;;;5.68;2.97;;;;;;;30.03;40.59;94720.50;10527597;28;20750;-76
2021/06/12 07:47:43;;;;;;;5.33;2.83;;;;;;;31.66;38.15;94713.72;10527389;28;20032;-77
2021/06/12 07:52:44;;;;;;;5.00;3.50;;;;;;;31.76;38.44;94719.59;10526808;28;20028;-77
2021/06/12 07:57:45;;;;;;;7.20;3.28;;;;;;;32.88;35.44;94719.94;10526032;28;20031;-77
2021/06/12 08:02:45;;;;;;;7.88;3.13;;;;;;;33.58;34.77;94716.94;10527984;28;20035;-77
2021/06/12 08:07:46;;;;;;;5.97;3.33;;;;;;;34.14;33.53;94714.38;10526901;28;20487;-77
2021/06/12 08:12:46;;;;;;;4.88;2.90;;;;;;;34.39;33.74;94710.34;10526923;28;20050;-77
2021/06/12 08:17:47;;;;;;;6.07;3.00;;;;;;;33.70;34.71;94707.97;10526278;28;20051;-77
2021/06/12 08:22:47;;;;;;;5.93;2.93;;;;;;;34.66;32.34;94712.97;10525802;28;20764;-76
2021/06/12 08:27:47;;;;;;;6.47;2.93;;;;;;;34.84;32.06;94701.44;10526339;28;20027;-77
2021/06/12 08:32:48;;;;;;;4.30;2.73;;;;;;;35.38;31.11;94699.47;10525675;28;20074;-77
2021/06/12 08:37:48;;;;;;;4.75;2.65;;;;;;;35.95;31.39;94694.47;10527201;28;20148;-76
2021/06/12 08:42:50;;;;;;;9.70;2.97;;;;;;;31.08;35.90;94684.81;10526973;28;20024;-76
2021/06/12 08:47:50;;;;;;;3.95;2.47;;;;;;;32.64;34.02;94687.63;10527529;28;20038;-77
2021/06/12 08:52:53;;;;;;;3.40;2.43;;;;;;;34.10;31.63;94688.56;10527008;28;20046;-77
2021/06/12 08:57:53;;;;;;;2.97;2.20;;;;;;;33.83;31.52;94683.09;10527017;28;20131;-77
2021/06/12 09:03:03;;;;;;;7.27;2.37;;;;;;;34.66;30.99;94673.09;10526862;28;20032;-76
2021/06/12 09:08:07;;;;;;;3.10;2.08;;;;;;;35.71;28.82;94663.91;10527390;28;20147;-77
2021/06/12 09:13:08;;;;;;;3.17;2.10;;;;;;;36.17;26.83;94652.72;10526746;28;20024;-77
2021/06/12 09:18:08;;;;;;;3.97;1.50;;;;;;;35.98;28.75;94654.44;10526836;28;20028;-77
2021/06/12 09:23:09;;;;;;;2.23;1.63;;;;;;;35.41;28.34;94651.09;10526711;28;20035;-77
2021/06/12 09:28:09;;;;;;;8.15;2.13;;;;;;;34.98;28.68;94652.09;10526508;28;20031;-76
2021/06/12 09:33:09;;;;;;;5.50;2.00;;;;;;;35.30;27.45;94648.53;10486916;28;20057;-76
2021/06/12 09:38:23;;;;;;;3.27;2.00;;;;;;;30.69;33.19;94650.53;10484545;28;20085;-77
2021/06/12 09:43:33;;;;;;;5.80;3.00;;;;;;;28.77;39.33;94657.59;10491468;28;20032;-76
2021/06/12 09:48:33;;;;;;;3.78;2.25;;;;;;;28.78;37.59;94656.44;10491631;28;20025;-76
2021/06/12 09:53:47;;;;;;;5.07;2.73;;;;;;;27.50;40.87;94647.97;10492145;28;20029;-76
2021/06/12 09:58:48;;;;;;;3.17;2.55;;;;;;;27.07;42.44;94634.66;10492004;28;20449;-76
2021/06/12 10:04:07;;;;;;;4.30;2.67;;;;;;;30.83;36.60;94633.00;10491187;28;20072;-77
2021/06/12 10:09:08;;;;;;;7.15;2.38;;;;;;;32.91;35.16;94620.13;10490338;28;20016;-77
2021/06/12 10:14:09;;;;;;;8.57;2.15;;;;;;;33.95;31.31;94623.13;10491407;28;20024;-77
2021/06/12 10:19:10;;;;;;;3.63;1.80;;;;;;;32.31;32.10;94620.53;10490643;28;20029;-77
2021/06/12 10:24:11;;;;;;;2.78;1.88;;;;;;;33.93;30.87;94612.41;10490109;28;20028;-77
2021/06/12 10:29:13;;;;;;;5.30;2.20;;;;;;;31.75;33.62;94618.00;10493163;28;20040;-77
2021/06/12 10:34:14;;;;;;;3.70;2.10;;;;;;;29.29;37.09;94622.09;10518236;28;20040;-77
2021/06/12 10:39:26;;;;;;;4.45;2.50;;;;;;;28.37;40.08;94612.47;10504500;28;20025;-74
2021/06/12 10:44:27;;;;;;;7.38;3.13;;;;;;;27.89;41.17;94619.00;10513543;28;20025;-74
2021/06/12 10:49:30;;;;;;;7.95;3.28;;;;;;;27.19;42.79;94619.75;10507044;28;20027;-75
2021/06/12 10:54:33;;;;;;;5.45;2.88;;;;;;;26.22;49.82;94621.59;10507871;28;20024;-75
2021/06/12 10:59:36;;;;;;;8.43;3.47;;;;;;;25.25;54.76;94615.59;10509977;28;20035;-75
2021/06/12 11:04:56;;;;;;;6.78;2.78;;;;;;;24.91;56.16;94623.72;10511556;28;20036;-72
2021/06/12 11:10:12;;;;;;;5.50;3.15;;;;;;;24.37;76.62;94626.28;10508385;28;20032;-73
2021/06/12 11:15:24;;;;;;;4.22;2.50;;;;;;;23.99;65.86;94611.47;10515109;28;20112;-73
2021/06/12 11:20:26;;;;;;;4.38;3.10;;;;;;;23.74;63.46;94621.13;10515106;28;20455;-73
2021/06/12 11:25:28;;;;;;;4.90;2.60;;;;;;;23.65;62.87;94619.38;10507184;28;20029;-72
2021/06/12 11:30:28;;;;;;;2.45;2.17;;;;;;;23.35;63.59;94605.41;10505229;28;20479;-72
2021/06/12 11:35:38;;;;;;;8.33;3.97;;;;;;;23.06;65.21;94606.69;10505599;28;20056;-72
2021/06/12 11:40:40;;;;;;;7.18;2.55;;;;;;;23.06;65.82;94599.25;10516011;28;20665;-73
2021/06/12 11:45:40;;;;;;;3.40;1.92;;;;;;;22.99;62.17;94591.63;10527966;28;20032;-72
2021/06/12 11:50:41;;;;;;;4.43;2.45;;;;;;;22.49;67.29;94582.22;10528122;28;20032;-72
2021/06/12 11:55:42;;;;;;;3.80;2.80;;;;;;;22.66;70.19;94592.84;10526564;28;20158;-72
2021/06/12 12:00:47;;;;;;;4.22;2.78;;;;;;;22.89;72.63;94581.25;10527588;28;20047;-73
2021/06/12 12:05:52;;;;;;;2.67;1.98;;;;;;;22.91;71.03;94584.41;10527860;28;20043;-73
2021/06/12 12:10:56;;;;;;;12.82;3.65;;;;;;;21.86;83.24;94586.44;10527189;28;20032;-72
2021/06/12 12:15:56;;;;;;;3.10;2.40;;;;;;;21.77;83.08;94599.47;10526854;28;20508;-72
2021/06/12 12:20:57;;;;;;;8.27;2.90;;;;;;;21.57;94.46;94626.66;10527299;28;20032;-72
2021/06/12 12:26:10;;;;;;;6.22;3.13;;;;;;;20.69;100.00;94634.44;10526702;28;20292;-72
2021/06/12 12:31:11;;;;;;;3.92;3.00;;;;;;;18.90;100.00;94636.56;10506123;28;20056;-72
2021/06/12 12:36:11;;;;;;;5.50;3.70;;;;;;;18.02;100.00;94643.41;10485781;28;20024;-72
2021/06/12 12:41:12;;;;;;;11.05;4.68;;;;;;;17.50;100.00;94636.88;10484454;28;20089;-72
2021/06/12 12:46:13;;;;;;;7.00;4.03;;;;;;;17.13;100.00;94641.78;10484401;28;20032;-72
2021/06/12 12:51:13;;;;;;;8.23;3.22;;;;;;;16.85;100.00;94627.66;10483915;28;20040;-72
2021/06/12 12:56:14;;;;;;;2.75;2.08;;;;;;;17.03;100.00;94632.03;10484271;28;20377;-73
2021/06/12 13:01:14;;;;;;;7.43;2.43;;;;;;;17.35;100.00;94629.19;10484929;28;20123;-72
2021/06/12 13:06:33;;;;;;;6.25;1.77;;;;;;;17.38;100.00;94620.41;10484527;28;20289;-73
2021/06/12 13:11:43;;;;;;;;;;;;;;;17.46;100.00;94624.25;10485032;28;20402;-72
2021/06/12 13:16:55;;;;;;;3.55;2.28;;;;;;;17.42;100.00;94621.38;10488952;28;20405;-73
2021/06/12 13:21:55;;;;;;;6.10;2.15;;;;;;;17.51;100.00;94622.19;10492061;28;20024;-73
2021/06/12 13:26:56;;;;;;;6.30;2.57;;;;;;;17.84;100.00;94616.22;10492363;28;20082;-73
2021/06/12 13:31:56;;;;;;;8.93;2.25;;;;;;;17.86;100.00;94616.72;10516484;28;20048;-73
2021/06/12 13:37:00;;;;;;;11.43;3.00;;;;;;;18.09;100.00;94613.81;10533670;28;20089;-73
2021/06/12 13:42:12;;;;;;;5.90;3.15;;;;;;;18.22;100.00;94618.25;10534430;28;20036;-73
2021/06/12 13:47:12;;;;;;;4.60;2.92;;;;;;;18.57;100.00;94623.59;10533170;28;20514;-73
2021/06/12 13:52:13;;;;;;;7.85;3.17;;;;;;;18.90;100.00;94620.22;10532935;28;20030;-73
2021/06/12 13:57:20;;;;;;;10.13;2.97;;;;;;;19.13;100.00;94623.47;10533647;28;20112;-73
2021/06/12 14:02:20;;;;;;;4.53;2.85;;;;;;;19.30;100.00;94628.00;10532784;28;20514;-73
2021/06/12 14:07:20;;;;;;;4.83;3.13;;;;;;;19.23;100.00;94621.50;10531201;28;20028;-73
2021/06/12 14:12:22;;;;;;;3.90;2.97;;;;;;;19.42;100.00;94626.47;10531547;28;20111;-72
2021/06/12 14:17:22;;;;;;;4.35;3.10;;;;;;;19.61;100.00;94618.63;10530657;28;20031;-73
2021/06/12 14:22:23;;;;;;;7.10;3.23;;;;;;;19.74;100.00;94626.88;10530632;28;20099;-73
2021/06/12 14:27:23;;;;;;;6.70;3.00;;;;;;;19.97;100.00;94617.22;10530683;28;20483;-73
2021/06/12 14:32:24;;;;;;;5.72;2.80;;;;;;;20.04;100.00;94616.66;10527914;28;20048;-73
2021/06/12 14:37:24;;;;;;;6.38;2.92;;;;;;;19.90;100.00;94611.50;10529973;28;20032;-73
2021/06/12 14:42:25;;;;;;;5.78;2.80;;;;;;;20.09;100.00;94607.47;10533340;28;20077;-72
2021/06/12 14:47:26;;;;;;;3.55;2.38;;;;;;;20.41;100.00;94605.03;10533042;28;20118;-72
2021/06/12 14:52:27;;;;;;;3.53;2.28;;;;;;;20.52;100.00;94591.75;10533171;28;20032;-72
2021/06/12 14:57:27;;;;;;;3.87;2.20;;;;;;;20.53;100.00;94599.59;10532303;28;20020;-72
2021/06/12 15:02:27;;;;;;;5.50;2.10;;;;;;;20.56;100.00;94593.44;10533215;28;20081;-72
2021/06/12 15:07:28;;;;;;;4.37;2.33;;;;;;;20.95;100.00;94593.94;10531925;28;20107;-72
2021/06/12 15:12:28;;;;;;;7.57;2.83;;;;;;;21.30;100.00;94598.88;10532091;28;20401;-72
2021/06/12 15:17:29;;;;;;;6.40;2.40;;;;;;;21.33;100.00;94611.06;10532587;28;20327;-72
2021/06/12 15:22:29;;;;;;;6.70;2.80;;;;;;;21.57;99.95;94620.38;10531646;28;20612;-72
2021/06/12 15:27:30;;;;;;;3.23;2.80;;;;;;;21.87;97.19;94617.34;10531648;28;20286;-72
2021/06/12 15:32:32;;;;;;;10.60;3.10;;;;;;;21.30;100.00;94612.56;10531041;28;20290;-72
2021/06/12 15:37:33;;;;;;;3.55;2.83;;;;;;;21.21;100.00;94611.91;10527395;28;20102;-72
2021/06/12 15:42:33;;;;;;;45.72;41.65;;;;;;;21.15;100.00;94607.81;10527548;28;20111;-72
2021/06/12 15:47:34;;;;;;;3.77;2.93;;;;;;;21.39;98.73;94608.91;10527775;28;20056;-72
2021/06/12 15:52:34;;;;;;;2.77;2.47;;;;;;;20.85;97.42;94605.34;10525772;28;20016;-72
2021/06/12 15:57:35;;;;;;;4.30;2.87;;;;;;;20.86;97.00;94601.47;10526997;28;20293;-72
2021/06/12 16:02:35;;;;;;;11.35;4.65;;;;;;;21.20;100.00;94602.09;10527004;28;20028;-72
2021/06/12 16:07:36;;;;;;;3.75;2.72;;;;;;;21.29;98.08;94613.72;10526092;28;20479;-72
2021/06/12 16:12:40;;;;;;;4.45;3.33;;;;;;;21.44;98.19;94614.13;10526077;28;20054;-72
2021/06/12 16:17:41;;;;;;;4.15;2.42;;;;;;;21.51;94.28;94620.59;10526338;28;20475;-73
2021/06/12 16:22:41;;;;;;;4.35;2.85;;;;;;;21.40;97.82;94621.44;10525916;28;20024;-72
2021/06/12 16:27:43;;;;;;;10.27;4.03;;;;;;;21.38;98.32;94626.44;10526180;28;20368;-72
2021/06/12 16:32:43;;;;;;;7.50;3.33;;;;;;;21.24;100.00;94632.25;10491434;28;20310;-72
2021/06/12 16:37:44;;;;;;;7.50;3.78;;;;;;;21.23;100.00;94641.63;10483903;28;20036;-72
2021/06/12 16:42:46;;;;;;;5.07;3.35;;;;;;;21.15;100.00;94646.06;10483628;28;20032;-72
2021/06/12 16:47:47;;;;;;;4.10;3.17;;;;;;;21.01;100.00;94651.88;10483759;28;20036;-72
2021/06/12 16:52:47;;;;;;;5.88;3.60;;;;;;;20.90;100.00;94654.25;10482597;28;20759;-72
2021/06/12 17:03:08;;;;;;;8.57;3.25;;;;;;;20.84;100.00;94658.34;10483721;28;20434;-72
2021/06/12 17:08:09;;;;;;;3.83;3.07;;;;;;;20.61;100.00;94656.03;10483164;28;20024;-73
2021/06/12 17:13:10;;;;;;;5.15;3.42;;;;;;;20.42;100.00;94653.84;10483275;28;20036;-72
2021/06/12 17:18:11;;;;;;;9.90;3.90;;;;;;;20.25;100.00;94660.28;10482821;28;20025;-72
2021/06/12 17:23:11;;;;;;;4.00;2.95;;;;;;;20.08;100.00;94669.44;10496060;28;20050;-72
2021/06/12 17:28:12;;;;;;;6.20;3.58;;;;;;;19.89;100.00;94674.59;10519347;28;20102;-73
2021/06/12 17:33:12;;;;;;;5.55;3.30;;;;;;;19.67;100.00;94679.19;10515621;28;20912;-72
2021/06/12 17:38:16;;;;;;;7.83;4.67;;;;;;;19.40;100.00;94669.63;10528055;28;20062;-72
2021/06/12 17:43:17;;;;;;;3.90;3.28;;;;;;;19.40;100.00;94678.59;10527674;28;20024;-72
2021/06/12 17:48:17;;;;;;;5.13;3.63;;;;;;;19.40;100.00;94681.31;10527662;28;20028;-72
2021/06/12 17:53:18;;;;;;;8.50;4.40;;;;;;;19.36;100.00;94683.09;10527640;28;20024;-72
2021/06/12 17:58:18;;;;;;;5.25;3.80;;;;;;;19.27;100.00;94694.06;10527401;28;20035;-75
2021/06/12 18:03:19;;;;;;;9.43;4.00;;;;;;;19.22;100.00;94688.00;10532815;28;20020;-72
2021/06/12 18:08:19;;;;;;;10.18;3.70;;;;;;;18.98;100.00;94699.50;10533798;28;20285;-72
2021/06/12 18:13:20;;;;;;;7.23;4.53;;;;;;;18.80;100.00;94691.38;10534125;28;20020;-72
2021/06/12 18:18:21;;;;;;;8.30;4.07;;;;;;;18.68;100.00;94696.72;10532850;28;20023;-72
2021/06/12 18:23:23;;;;;;;7.15;4.28;;;;;;;18.47;100.00;94694.69;10534670;28;20814;-73
2021/06/12 18:28:23;;;;;;;5.63;4.03;;;;;;;18.03;100.00;94710.25;10532910;28;20483;-72
2021/06/12 18:33:24;;;;;;;6.00;4.03;;;;;;;17.89;100.00;94710.44;10532622;28;20052;-72
2021/06/12 18:38:24;;;;;;;6.70;3.72;;;;;;;17.95;100.00;94716.53;10525798;28;20817;-73
2021/06/12 18:43:25;;;;;;;8.97;3.67;;;;;;;17.83;100.00;94730.72;10526625;28;20502;-72
2021/06/12 18:48:25;;;;;;;7.73;4.27;;;;;;;17.55;100.00;94731.84;10529577;28;20300;-72
2021/06/12 18:53:25;;;;;;;6.80;4.47;;;;;;;17.73;100.00;94734.56;10525760;28;20036;-71
2021/06/12 18:58:27;;;;;;;8.63;5.53;;;;;;;17.62;100.00;94752.28;10527915;28;20031;-71
2021/06/12 19:03:28;;;;;;;8.40;5.07;;;;;;;17.48;100.00;94757.84;10526623;28;20405;-72
2021/06/12 19:08:30;;;;;;;7.45;5.32;;;;;;;17.21;100.00;94762.41;10528493;28;20026;-72
2021/06/12 19:13:31;;;;;;;8.98;5.70;;;;;;;17.10;100.00;94775.47;10528193;28;20103;-72
2021/06/12 19:18:31;;;;;;;7.75;5.20;;;;;;;17.06;100.00;94775.28;10527895;28;20112;-72
2021/06/12 19:23:32;;;;;;;8.07;5.87;;;;;;;16.96;100.00;94775.56;10527728;28;20124;-72
2021/06/12 19:28:45;;;;;;;12.50;6.35;;;;;;;16.80;100.00;94785.19;10533850;28;20038;-74
2021/06/12 19:33:45;;;;;;;7.90;4.82;;;;;;;16.81;100.00;94789.53;10527115;28;20716;-72
2021/06/12 19:39:19;;;;;;;6.97;4.30;;;;;;;16.92;100.00;94794.38;10527761;28;20103;-72
2021/06/12 19:44:13;;;;;;;7.28;4.85;;;;;;;16.87;100.00;94791.78;10524839;28;20052;-72
2021/06/12 19:49:14;;;;;;;9.18;4.70;;;;;;;17.14;100.00;94803.59;10527325;28;20031;-72
2021/06/12 19:54:14;;;;;;;10.32;5.95;;;;;;;17.26;100.00;94816.59;10527029;28;20798;-72
2021/06/12 19:59:16;;;;;;;15.35;6.80;;;;;;;17.37;100.00;94817.09;10527145;28;20020;-71
2021/06/12 20:04:17;;;;;;;7.07;5.15;;;;;;;17.34;100.00;94828.59;10527245;28;20122;-71
2021/06/12 20:09:18;;;;;;;9.07;5.67;;;;;;;17.35;100.00;94830.22;10527071;28;20804;-72
2021/06/12 20:14:19;;;;;;;7.93;5.07;;;;;;;17.37;100.00;94844.28;10526651;28;20288;-71
2021/06/12 20:19:19;;;;;;;10.90;5.27;;;;;;;17.34;100.00;94832.13;10524566;28;20032;-72
2021/06/12 20:24:20;;;;;;;8.80;6.13;;;;;;;17.45;100.00;94835.38;10526803;28;20060;-72
2021/06/12 20:29:20;;;;;;;8.80;6.57;;;;;;;16.89;100.00;94846.59;10526373;28;20028;-72
2021/06/12 20:34:20;;;;;;;12.67;7.47;;;;;;;16.14;100.00;94838.03;10527246;28;20048;-72
2021/06/12 20:39:21;;;;;;;12.20;6.63;;;;;;;15.52;100.00;94819.56;10529057;28;20262;-72
2021/06/12 20:44:21;;;;;;;13.07;7.97;;;;;;;15.12;100.00;94824.69;10529692;28;20297;-72
2021/06/12 20:49:21;;;;;;;11.80;7.13;;;;;;;14.74;100.00;94808.59;10528416;28;20559;-72
2021/06/12 20:54:22;;;;;;;15.43;8.50;;;;;;;14.57;100.00;94799.09;10528771;28;20407;-72
2021/06/12 20:59:22;;;;;;;14.30;8.70;;;;;;;14.49;100.00;94788.97;10529320;28;20515;-72
2021/06/12 21:04:23;;;;;;;11.45;6.90;;;;;;;14.43;100.00;94782.84;10528238;28;20292;-72
2021/06/12 21:09:24;;;;;;;9.30;5.97;;;;;;;14.47;100.00;94770.34;10528622;28;20027;-72
2021/06/12 21:14:24;;;;;;;10.77;6.35;;;;;;;14.41;100.00;94752.56;10529158;28;20803;-72
2021/06/12 21:19:25;;;;;;;7.67;5.03;;;;;;;14.36;100.00;94739.94;10528169;28;20093;-72
2021/06/12 21:24:25;;;;;;;10.37;5.73;;;;;;;14.27;100.00;94741.72;10527783;28;20377;-72
2021/06/12 21:29:25;;;;;;;8.30;5.67;;;;;;;14.26;100.00;94742.03;10522875;28;20020;-72
2021/06/12 21:34:26;;;;;;;6.05;4.18;;;;;;;14.41;100.00;94746.38;10484460;28;20049;-72
2021/06/12 21:39:26;;;;;;;7.00;5.57;;;;;;;14.35;100.00;94743.75;10487380;28;20016;-72
2021/06/12 21:44:27;;;;;;;6.18;4.88;;;;;;;14.20;100.00;94735.91;10489591;28;20033;-72
2021/06/12 21:49:27;;;;;;;5.90;4.38;;;;;;;14.12;100.00;94740.09;10489207;28;20021;-72
2021/06/12 21:54:28;;;;;;;8.73;5.67;;;;;;;13.96;100.00;94757.63;10489017;28;20479;-72
2021/06/12 21:59:28;;;;;;;9.30;6.23;;;;;;;13.88;100.00;94763.72;10488908;28;20263;-72
2021/06/12 22:04:28;;;;;;;8.53;6.13;;;;;;;13.95;100.00;94777.66;10510573;28;20100;-72
2021/06/12 22:09:29;;;;;;;6.03;5.10;;;;;;;13.83;100.00;94770.78;10529702;28;20027;-72
2021/06/12 22:14:29;;;;;;;7.53;5.55;;;;;;;13.70;100.00;94776.91;10530250;28;20039;-72
2021/06/12 22:19:31;;;;;;;7.57;6.38;;;;;;;13.69;100.00;94780.72;10529881;28;20034;-72
2021/06/12 22:24:32;;;;;;;6.55;5.03;;;;;;;13.71;100.00;94791.22;10529413;28;20035;-72
2021/06/12 22:29:32;;;;;;;9.43;5.03;;;;;;;13.66;100.00;94789.38;10529834;28;20043;-72
2021/06/12 22:34:32;;;;;;;12.30;7.57;;;;;;;13.64;100.00;94780.78;10529366;28;20630;-72
2021/06/12 22:39:33;;;;;;;9.17;7.00;;;;;;;13.63;100.00;94792.69;10528537;28;20060;-72
2021/06/12 22:44:33;;;;;;;9.90;6.83;;;;;;;13.78;100.00;94797.88;10528945;28;20129;-72
2021/06/12 22:49:33;;;;;;;13.10;6.37;;;;;;;13.82;100.00;94803.50;10528269;28;20032;-72
2021/06/12 22:54:34;;;;;;;10.60;6.73;;;;;;;13.82;100.00;94795.41;10529126;28;20258;-72
2021/06/12 22:59:34;;;;;;;11.90;7.80;;;;;;;13.63;100.00;94798.91;10528682;28;20032;-72
2021/06/12 23:04:34;;;;;;;10.47;8.27;;;;;;;13.71;100.00;94796.63;10528810;28;20557;-72
2021/06/12 23:09:35;;;;;;;10.77;7.93;;;;;;;13.64;100.00;94803.19;10528428;28;20064;-72
2021/06/12 23:14:35;;;;;;;14.60;9.33;;;;;;;13.47;100.00;94798.28;10526733;28;20262;-72